sensor_id;sensor_type;location;lat;lon;timestamp;temperature;humidity
21123;DHT22;10719;48.130;11.630;2023-04-01T00:01:36;7.80;99.90
21123;DHT22;10719;48.130;11.630;2023-04-01T00:04:01;7.70;99.90
21123;DHT22;10719;48.130;11.630;2023-04-01T00:06:27;7.70;99.90
21123;DHT22;10719;48.130;11.630;2023-04-01T00:08:53;7.70;99.90
21123;DHT22;10719;48.130;11.630;2023-04-01T00:11:19;7.60;99.90
21123;DHT22;10719;48.130;11.630;2023-04-01T00:13:45;7.60;99.90
21123;DHT22;10719;48.130;11.630;2023-04-01T00:16:10;7.60;99.90
21123;DHT22;10719;48.130;11.630;2023-04-01T00:18:37;7.60;99.90
21123;DHT22;10719;48.130;11.630;2023-04-01T00:21:03;7.60;99.90
21123;DHT22;10719;48.130;11.630;2023-04-01T00:23:29;7.60;99.90
21123;DHT22;10719;48.130;11.630;2023-04-01T00:25:54;7.60;99.90
21123;DHT22;10719;48.130;11.630;2023-04-01T00:28:20;7.50;99.90
21123;DHT22;10719;48.130;11.630;2023-04-01T00:30:47;7.60;99.90
21123;DHT22;10719;48.130;11.630;2023-04-01T00:33:13;7.60;99.90
21123;DHT22;10719;48.130;11.630;2023-04-01T00:35:39;7.50;99.90
21123;DHT22;10719;48.130;11.630;2023-04-01T00:38:05;7.50;99.90
21123;DHT22;10719;48.130;11.630;2023-04-01T00:40:37;7.50;99.90
21123;DHT22;10719;48.130;11.630;2023-04-01T00:43:08;7.50;99.90
21123;DHT22;10719;48.130;11.630;2023-04-01T00:45:37;7.50;99.90
21123;DHT22;10719;48.130;11.630;2023-04-01T00:50:43;7.40;99.90
21123;DHT22;10719;48.130;11.630;2023-04-01T00:53:10;7.40;99.90
21123;DHT22;10719;48.130;11.630;2023-04-01T00:55:39;7.40;99.90
21123;DHT22;10719;48.130;11.630;2023-04-01T00:58:09;7.40;99.90
21123;DHT22;10719;48.130;11.630;2023-04-01T01:00:37;7.40;99.90
21123;DHT22;10719;48.130;11.630;2023-04-01T01:03:03;7.40;99.90
21123;DHT22;10719;48.130;11.630;2023-04-01T01:05:59;7.50;99.90
21123;DHT22;10719;48.130;11.630;2023-04-01T01:11:12;7.50;99.90
21123;DHT22;10719;48.130;11.630;2023-04-01T01:13:49;7.50;99.90
21123;DHT22;10719;48.130;11.630;2023-04-01T01:16:30;7.50;99.90
21123;DHT22;10719;48.130;11.630;2023-04-01T01:27:58;7.70;99.90
21123;DHT22;10719;48.130;11.630;2023-04-01T01:30:42;7.70;99.90
21123;DHT22;10719;48.130;11.630;2023-04-01T01:33:13;7.70;99.90
21123;DHT22;10719;48.130;11.630;2023-04-01T01:35:52;7.80;99.90
21123;DHT22;10719;48.130;11.630;2023-04-01T01:38:23;7.80;99.90
21123;DHT22;10719;48.130;11.630;2023-04-01T01:40:51;7.80;99.90
21123;DHT22;10719;48.130;11.630;2023-04-01T01:43:24;7.80;99.90
21123;DHT22;10719;48.130;11.630;2023-04-01T01:45:54;7.80;99.90
21123;DHT22;10719;48.130;11.630;2023-04-01T01:48:22;7.70;99.90
21123;DHT22;10719;48.130;11.630;2023-04-01T01:50:49;7.70;99.90
21123;DHT22;10719;48.130;11.630;2023-04-01T01:53:15;7.70;99.90
21123;DHT22;10719;48.130;11.630;2023-04-01T01:55:44;7.70;99.90
21123;DHT22;10719;48.130;11.630;2023-04-01T01:58:25;7.70;99.90
21123;DHT22;10719;48.130;11.630;2023-04-01T02:00:58;7.70;99.90
21123;DHT22;10719;48.130;11.630;2023-04-01T02:03:27;7.70;99.90
21123;DHT22;10719;48.130;11.630;2023-04-01T02:05:56;7.60;99.90
21123;DHT22;10719;48.130;11.630;2023-04-01T02:08:47;7.60;99.90
21123;DHT22;10719;48.130;11.630;2023-04-01T02:11:21;7.70;99.90
21123;DHT22;10719;48.130;11.630;2023-04-01T02:13:52;7.70;99.90
21123;DHT22;10719;48.130;11.630;2023-04-01T02:16:26;7.70;99.90
21123;DHT22;10719;48.130;11.630;2023-04-01T02:18:53;7.70;99.90
21123;DHT22;10719;48.130;11.630;2023-04-01T02:21:22;7.70;99.90
21123;DHT22;10719;48.130;11.630;2023-04-01T02:23:51;7.70;99.90
21123;DHT22;10719;48.130;11.630;2023-04-01T02:26:18;7.70;99.90
21123;DHT22;10719;48.130;11.630;2023-04-01T02:28:46;7.70;99.90
21123;DHT22;10719;48.130;11.630;2023-04-01T02:31:14;7.70;99.90
21123;DHT22;10719;48.130;11.630;2023-04-01T02:33:41;7.70;99.90
21123;DHT22;10719;48.130;11.630;2023-04-01T02:36:11;7.70;99.90
21123;DHT22;10719;48.130;11.630;2023-04-01T02:38:37;7.70;99.90
21123;DHT22;10719;48.130;11.630;2023-04-01T02:41:03;7.70;99.90
21123;DHT22;10719;48.130;11.630;2023-04-01T02:43:30;7.70;99.90
21123;DHT22;10719;48.130;11.630;2023-04-01T02:45:56;7.70;99.90
21123;DHT22;10719;48.130;11.630;2023-04-01T02:48:21;7.70;99.90
21123;DHT22;10719;48.130;11.630;2023-04-01T02:50:47;7.70;99.90
21123;DHT22;10719;48.130;11.630;2023-04-01T02:53:13;7.70;99.90
21123;DHT22;10719;48.130;11.630;2023-04-01T02:55:38;7.60;99.90
21123;DHT22;10719;48.130;11.630;2023-04-01T02:58:04;7.60;99.90
21123;DHT22;10719;48.130;11.630;2023-04-01T03:00:30;7.60;99.90
21123;DHT22;10719;48.130;11.630;2023-04-01T03:02:55;7.60;99.90
21123;DHT22;10719;48.130;11.630;2023-04-01T03:05:22;7.60;99.90
21123;DHT22;10719;48.130;11.630;2023-04-01T03:07:48;7.60;99.90
21123;DHT22;10719;48.130;11.630;2023-04-01T03:10:14;7.60;99.90
21123;DHT22;10719;48.130;11.630;2023-04-01T03:12:39;7.70;99.90
21123;DHT22;10719;48.130;11.630;2023-04-01T03:15:06;7.60;99.90
21123;DHT22;10719;48.130;11.630;2023-04-01T03:17:31;7.60;99.90
21123;DHT22;10719;48.130;11.630;2023-04-01T03:19:57;7.60;99.90
21123;DHT22;10719;48.130;11.630;2023-04-01T03:22:22;7.60;99.90
21123;DHT22;10719;48.130;11.630;2023-04-01T03:24:48;7.60;99.90
21123;DHT22;10719;48.130;11.630;2023-04-01T03:27:14;7.60;99.90
21123;DHT22;10719;48.130;11.630;2023-04-01T03:29:40;7.50;99.90
21123;DHT22;10719;48.130;11.630;2023-04-01T03:32:06;7.50;99.90
21123;DHT22;10719;48.130;11.630;2023-04-01T03:34:32;7.50;99.90
21123;DHT22;10719;48.130;11.630;2023-04-01T03:36:57;7.40;99.90
21123;DHT22;10719;48.130;11.630;2023-04-01T03:39:23;7.40;99.90
21123;DHT22;10719;48.130;11.630;2023-04-01T03:41:50;7.40;99.90
21123;DHT22;10719;48.130;11.630;2023-04-01T03:44:16;7.30;99.90
21123;DHT22;10719;48.130;11.630;2023-04-01T03:46:41;7.30;99.90
21123;DHT22;10719;48.130;11.630;2023-04-01T03:49:08;7.30;99.90
21123;DHT22;10719;48.130;11.630;2023-04-01T03:51:41;7.20;99.90
21123;DHT22;10719;48.130;11.630;2023-04-01T03:54:08;7.20;99.90
21123;DHT22;10719;48.130;11.630;2023-04-01T03:56:33;7.30;99.90
21123;DHT22;10719;48.130;11.630;2023-04-01T03:59:03;7.30;99.90
21123;DHT22;10719;48.130;11.630;2023-04-01T04:01:29;7.20;99.90
21123;DHT22;10719;48.130;11.630;2023-04-01T04:03:55;7.20;99.90
21123;DHT22;10719;48.130;11.630;2023-04-01T04:06:21;7.20;99.90
21123;DHT22;10719;48.130;11.630;2023-04-01T04:08:47;7.20;99.90
21123;DHT22;10719;48.130;11.630;2023-04-01T04:11:13;7.20;99.90
21123;DHT22;10719;48.130;11.630;2023-04-01T04:13:38;7.10;99.90
21123;DHT22;10719;48.130;11.630;2023-04-01T04:16:04;7.10;99.90
21123;DHT22;10719;48.130;11.630;2023-04-01T04:18:30;7.10;99.90
21123;DHT22;10719;48.130;11.630;2023-04-01T04:20:55;7.10;99.90
21123;DHT22;10719;48.130;11.630;2023-04-01T04:23:21;7.10;99.90
21123;DHT22;10719;48.130;11.630;2023-04-01T04:25:58;7.10;99.90
21123;DHT22;10719;48.130;11.630;2023-04-01T04:28:25;7.10;99.90
21123;DHT22;10719;48.130;11.630;2023-04-01T04:30:51;7.20;99.90
21123;DHT22;10719;48.130;11.630;2023-04-01T04:33:17;7.10;99.90
21123;DHT22;10719;48.130;11.630;2023-04-01T04:35:42;7.20;99.90
21123;DHT22;10719;48.130;11.630;2023-04-01T04:38:08;7.20;99.90
21123;DHT22;10719;48.130;11.630;2023-04-01T04:40:39;7.10;99.90
21123;DHT22;10719;48.130;11.630;2023-04-01T04:43:05;7.20;99.90
21123;DHT22;10719;48.130;11.630;2023-04-01T04:45:31;7.30;99.90
21123;DHT22;10719;48.130;11.630;2023-04-01T04:47:57;7.20;99.90
21123;DHT22;10719;48.130;11.630;2023-04-01T04:50:23;7.30;99.90
21123;DHT22;10719;48.130;11.630;2023-04-01T04:52:49;7.30;99.90
21123;DHT22;10719;48.130;11.630;2023-04-01T04:55:14;7.30;99.90
21123;DHT22;10719;48.130;11.630;2023-04-01T04:57:40;7.30;99.90
21123;DHT22;10719;48.130;11.630;2023-04-01T05:00:07;7.30;99.90
21123;DHT22;10719;48.130;11.630;2023-04-01T05:02:33;7.40;99.90
21123;DHT22;10719;48.130;11.630;2023-04-01T05:04:59;7.30;99.90
21123;DHT22;10719;48.130;11.630;2023-04-01T05:07:24;7.30;99.90
21123;DHT22;10719;48.130;11.630;2023-04-01T05:09:50;7.40;99.90
21123;DHT22;10719;48.130;11.630;2023-04-01T05:12:15;7.40;99.90
21123;DHT22;10719;48.130;11.630;2023-04-01T05:14:41;7.40;99.90
21123;DHT22;10719;48.130;11.630;2023-04-01T05:17:11;7.50;99.90
21123;DHT22;10719;48.130;11.630;2023-04-01T05:19:37;7.50;99.90
21123;DHT22;10719;48.130;11.630;2023-04-01T05:22:03;7.50;99.90
21123;DHT22;10719;48.130;11.630;2023-04-01T05:24:29;7.50;99.90
21123;DHT22;10719;48.130;11.630;2023-04-01T05:26:55;7.60;99.90
21123;DHT22;10719;48.130;11.630;2023-04-01T05:29:21;7.60;99.90
21123;DHT22;10719;48.130;11.630;2023-04-01T05:31:47;7.60;99.90
21123;DHT22;10719;48.130;11.630;2023-04-01T05:34:13;7.70;99.90
21123;DHT22;10719;48.130;11.630;2023-04-01T05:36:38;7.70;99.90
21123;DHT22;10719;48.130;11.630;2023-04-01T05:39:04;7.70;99.90
21123;DHT22;10719;48.130;11.630;2023-04-01T05:41:29;7.70;99.90
21123;DHT22;10719;48.130;11.630;2023-04-01T05:43:55;7.70;99.90
21123;DHT22;10719;48.130;11.630;2023-04-01T05:46:21;7.80;99.90
21123;DHT22;10719;48.130;11.630;2023-04-01T05:48:46;7.80;99.90
21123;DHT22;10719;48.130;11.630;2023-04-01T05:51:13;7.80;99.90
21123;DHT22;10719;48.130;11.630;2023-04-01T05:53:39;7.80;99.90
21123;DHT22;10719;48.130;11.630;2023-04-01T05:56:05;7.80;99.90
21123;DHT22;10719;48.130;11.630;2023-04-01T05:58:31;7.80;99.90
21123;DHT22;10719;48.130;11.630;2023-04-01T06:01:01;7.80;99.90
21123;DHT22;10719;48.130;11.630;2023-04-01T06:03:27;7.80;99.90
21123;DHT22;10719;48.130;11.630;2023-04-01T06:05:53;7.80;99.90
21123;DHT22;10719;48.130;11.630;2023-04-01T06:08:18;7.90;99.90
21123;DHT22;10719;48.130;11.630;2023-04-01T06:11:05;7.90;99.90
21123;DHT22;10719;48.130;11.630;2023-04-01T06:14:02;7.90;99.90
21123;DHT22;10719;48.130;11.630;2023-04-01T06:16:45;8.00;99.90
21123;DHT22;10719;48.130;11.630;2023-04-01T06:22:20;8.00;99.90
21123;DHT22;10719;48.130;11.630;2023-04-01T06:25:06;7.90;99.90
21123;DHT22;10719;48.130;11.630;2023-04-01T06:46:54;8.20;99.90
21123;DHT22;10719;48.130;11.630;2023-04-01T06:52:12;8.30;99.90
21123;DHT22;10719;48.130;11.630;2023-04-01T06:54:42;8.30;99.90
21123;DHT22;10719;48.130;11.630;2023-04-01T06:59:47;8.30;99.90
21123;DHT22;10719;48.130;11.630;2023-04-01T07:02:17;8.30;99.90
21123;DHT22;10719;48.130;11.630;2023-04-01T07:04:46;8.30;99.90
21123;DHT22;10719;48.130;11.630;2023-04-01T07:09:52;8.50;99.90
21123;DHT22;10719;48.130;11.630;2023-04-01T07:12:38;8.70;99.90
21123;DHT22;10719;48.130;11.630;2023-04-01T07:17:39;8.80;99.90
21123;DHT22;10719;48.130;11.630;2023-04-01T07:22:48;9.00;99.90
21123;DHT22;10719;48.130;11.630;2023-04-01T07:25:17;9.00;99.90
21123;DHT22;10719;48.130;11.630;2023-04-01T07:27:44;9.00;99.90
21123;DHT22;10719;48.130;11.630;2023-04-01T07:32:47;9.00;99.90
21123;DHT22;10719;48.130;11.630;2023-04-01T07:38:43;9.00;99.90
21123;DHT22;10719;48.130;11.630;2023-04-01T07:46:35;9.10;99.90
21123;DHT22;10719;48.130;11.630;2023-04-01T07:49:11;9.10;99.90
21123;DHT22;10719;48.130;11.630;2023-04-01T07:52:00;9.30;99.90
21123;DHT22;10719;48.130;11.630;2023-04-01T07:57:47;9.40;99.90
21123;DHT22;10719;48.130;11.630;2023-04-01T08:05:28;9.70;99.90
21123;DHT22;10719;48.130;11.630;2023-04-01T08:08:19;9.70;99.90
21123;DHT22;10719;48.130;11.630;2023-04-01T08:17:20;9.70;99.90
21123;DHT22;10719;48.130;11.630;2023-04-01T08:19:59;9.80;99.90
21123;DHT22;10719;48.130;11.630;2023-04-01T08:22:40;9.70;99.90
21123;DHT22;10719;48.130;11.630;2023-04-01T08:25:16;9.90;99.90
21123;DHT22;10719;48.130;11.630;2023-04-01T08:27:53;10.00;99.90
21123;DHT22;10719;48.130;11.630;2023-04-01T08:30:32;9.90;99.90
21123;DHT22;10719;48.130;11.630;2023-04-01T08:35:37;10.00;99.90
21123;DHT22;10719;48.130;11.630;2023-04-01T08:40:58;10.10;99.90
21123;DHT22;10719;48.130;11.630;2023-04-01T08:49:29;10.40;99.90
21123;DHT22;10719;48.130;11.630;2023-04-01T08:52:19;10.40;99.90
21123;DHT22;10719;48.130;11.630;2023-04-01T08:55:03;10.20;99.90
21123;DHT22;10719;48.130;11.630;2023-04-01T09:02:55;10.40;99.90
21123;DHT22;10719;48.130;11.630;2023-04-01T09:11:06;11.00;99.90
21123;DHT22;10719;48.130;11.630;2023-04-01T09:35:22;11.60;99.90
21123;DHT22;10719;48.130;11.630;2023-04-01T09:38:02;11.40;99.90
21123;DHT22;10719;48.130;11.630;2023-04-01T09:54:10;11.80;99.90
21123;DHT22;10719;48.130;11.630;2023-04-01T10:17:00;12.70;99.90
21123;DHT22;10719;48.130;11.630;2023-04-01T10:34:05;11.70;99.90
21123;DHT22;10719;48.130;11.630;2023-04-01T10:36:54;11.80;99.90
21123;DHT22;10719;48.130;11.630;2023-04-01T10:45:06;12.10;99.90
21123;DHT22;10719;48.130;11.630;2023-04-01T10:59:23;11.50;99.90
21123;DHT22;10719;48.130;11.630;2023-04-01T11:08:07;11.30;99.90
21123;DHT22;10719;48.130;11.630;2023-04-01T11:23:00;10.80;99.90
21123;DHT22;10719;48.130;11.630;2023-04-01T11:28:43;10.70;99.90
21123;DHT22;10719;48.130;11.630;2023-04-01T11:31:43;10.70;99.90
21123;DHT22;10719;48.130;11.630;2023-04-01T11:40:02;11.10;99.90
21123;DHT22;10719;48.130;11.630;2023-04-01T11:43:18;11.10;99.90
21123;DHT22;10719;48.130;11.630;2023-04-01T11:46:02;10.70;99.90
21123;DHT22;10719;48.130;11.630;2023-04-01T11:57:03;10.10;99.90
21123;DHT22;10719;48.130;11.630;2023-04-01T12:00:10;10.00;99.90
21123;DHT22;10719;48.130;11.630;2023-04-01T12:05:44;9.60;99.90
21123;DHT22;10719;48.130;11.630;2023-04-01T12:08:33;9.40;99.90
21123;DHT22;10719;48.130;11.630;2023-04-01T12:11:21;9.10;99.90
21123;DHT22;10719;48.130;11.630;2023-04-01T12:14:03;8.80;99.90
21123;DHT22;10719;48.130;11.630;2023-04-01T12:41:44;8.40;99.90
21123;DHT22;10719;48.130;11.630;2023-04-01T12:55:42;8.30;99.90
21123;DHT22;10719;48.130;11.630;2023-04-01T12:58:27;8.40;99.90
21123;DHT22;10719;48.130;11.630;2023-04-01T13:09:05;8.30;99.90
21123;DHT22;10719;48.130;11.630;2023-04-01T13:23:33;8.30;99.90
21123;DHT22;10719;48.130;11.630;2023-04-01T13:26:27;8.30;99.90
21123;DHT22;10719;48.130;11.630;2023-04-01T13:29:11;8.40;99.90
21123;DHT22;10719;48.130;11.630;2023-04-01T13:34:47;8.40;99.90
21123;DHT22;10719;48.130;11.630;2023-04-01T13:37:30;8.40;99.90
21123;DHT22;10719;48.130;11.630;2023-04-01T13:43:22;8.30;99.90
21123;DHT22;10719;48.130;11.630;2023-04-01T13:48:54;8.50;99.90
21123;DHT22;10719;48.130;11.630;2023-04-01T13:51:40;8.40;99.90
21123;DHT22;10719;48.130;11.630;2023-04-01T13:57:27;8.60;99.90
21123;DHT22;10719;48.130;11.630;2023-04-01T14:26:21;8.50;99.90
21123;DHT22;10719;48.130;11.630;2023-04-01T14:31:41;8.50;99.90
21123;DHT22;10719;48.130;11.630;2023-04-01T14:50:51;9.10;99.90
21123;DHT22;10719;48.130;11.630;2023-04-01T14:55:56;9.00;99.90
21123;DHT22;10719;48.130;11.630;2023-04-01T14:58:40;8.90;99.90
21123;DHT22;10719;48.130;11.630;2023-04-01T15:14:56;9.10;99.90
21123;DHT22;10719;48.130;11.630;2023-04-01T15:20:39;9.10;99.90
21123;DHT22;10719;48.130;11.630;2023-04-01T15:23:33;9.10;99.90
21123;DHT22;10719;48.130;11.630;2023-04-01T15:26:26;8.90;99.90
21123;DHT22;10719;48.130;11.630;2023-04-01T15:35:12;8.90;99.90
21123;DHT22;10719;48.130;11.630;2023-04-01T15:37:49;9.10;99.90
21123;DHT22;10719;48.130;11.630;2023-04-01T15:40:38;9.20;99.90
21123;DHT22;10719;48.130;11.630;2023-04-01T15:43:16;9.20;99.90
21123;DHT22;10719;48.130;11.630;2023-04-01T15:51:28;9.40;99.90
21123;DHT22;10719;48.130;11.630;2023-04-01T15:57:00;9.40;99.90
21123;DHT22;10719;48.130;11.630;2023-04-01T15:59:57;9.50;99.90
21123;DHT22;10719;48.130;11.630;2023-04-01T16:02:51;9.40;99.90
21123;DHT22;10719;48.130;11.630;2023-04-01T16:08:25;9.40;99.90
21123;DHT22;10719;48.130;11.630;2023-04-01T16:19:17;9.70;99.90
21123;DHT22;10719;48.130;11.630;2023-04-01T16:21:54;9.60;99.90
21123;DHT22;10719;48.130;11.630;2023-04-01T16:27:18;9.60;99.90
21123;DHT22;10719;48.130;11.630;2023-04-01T16:32:54;9.70;99.90
21123;DHT22;10719;48.130;11.630;2023-04-01T16:38:26;9.60;99.90
21123;DHT22;10719;48.130;11.630;2023-04-01T16:44:10;9.50;99.90
21123;DHT22;10719;48.130;11.630;2023-04-01T16:46:43;9.50;99.90
21123;DHT22;10719;48.130;11.630;2023-04-01T16:54:52;9.40;99.90
21123;DHT22;10719;48.130;11.630;2023-04-01T16:57:27;9.40;99.90
21123;DHT22;10719;48.130;11.630;2023-04-01T17:00:10;9.40;99.90
21123;DHT22;10719;48.130;11.630;2023-04-01T17:02:49;9.30;99.90
21123;DHT22;10719;48.130;11.630;2023-04-01T17:05:17;9.30;99.90
21123;DHT22;10719;48.130;11.630;2023-04-01T17:10:31;9.30;99.90
21123;DHT22;10719;48.130;11.630;2023-04-01T17:21:16;9.20;99.90
21123;DHT22;10719;48.130;11.630;2023-04-01T17:23:50;9.20;99.90
21123;DHT22;10719;48.130;11.630;2023-04-01T17:26:40;9.20;99.90
21123;DHT22;10719;48.130;11.630;2023-04-01T17:29:55;9.20;99.90
21123;DHT22;10719;48.130;11.630;2023-04-01T17:32:53;9.10;99.90
21123;DHT22;10719;48.130;11.630;2023-04-01T17:35:33;9.10;99.90
21123;DHT22;10719;48.130;11.630;2023-04-01T17:46:18;9.10;99.90
21123;DHT22;10719;48.130;11.630;2023-04-01T17:49:12;9.10;99.90
21123;DHT22;10719;48.130;11.630;2023-04-01T18:00:32;9.10;99.90
21123;DHT22;10719;48.130;11.630;2023-04-01T18:06:14;9.10;99.90
21123;DHT22;10719;48.130;11.630;2023-04-01T18:14:59;9.10;99.90
21123;DHT22;10719;48.130;11.630;2023-04-01T18:20:29;9.10;99.90
21123;DHT22;10719;48.130;11.630;2023-04-01T18:25:42;9.20;99.90
21123;DHT22;10719;48.130;11.630;2023-04-01T18:28:26;9.10;99.90
21123;DHT22;10719;48.130;11.630;2023-04-01T18:31:13;9.20;99.90
21123;DHT22;10719;48.130;11.630;2023-04-01T18:34:06;9.10;99.90
21123;DHT22;10719;48.130;11.630;2023-04-01T18:36:55;9.10;99.90
21123;DHT22;10719;48.130;11.630;2023-04-01T18:39:41;8.90;99.90
21123;DHT22;10719;48.130;11.630;2023-04-01T18:42:22;8.80;99.90
21123;DHT22;10719;48.130;11.630;2023-04-01T18:45:01;8.80;99.90
21123;DHT22;10719;48.130;11.630;2023-04-01T18:47:41;8.70;99.90
21123;DHT22;10719;48.130;11.630;2023-04-01T18:56:07;8.60;99.90
21123;DHT22;10719;48.130;11.630;2023-04-01T18:58:38;8.50;99.90
21123;DHT22;10719;48.130;11.630;2023-04-01T19:01:26;8.50;99.90
21123;DHT22;10719;48.130;11.630;2023-04-01T19:04:21;8.50;99.90
21123;DHT22;10719;48.130;11.630;2023-04-01T19:06:52;8.50;99.90
21123;DHT22;10719;48.130;11.630;2023-04-01T19:18:07;8.40;99.90
21123;DHT22;10719;48.130;11.630;2023-04-01T19:23:57;8.30;99.90
21123;DHT22;10719;48.130;11.630;2023-04-01T19:29:18;8.30;99.90
21123;DHT22;10719;48.130;11.630;2023-04-01T19:34:42;8.20;99.90
21123;DHT22;10719;48.130;11.630;2023-04-01T19:37:27;8.30;99.90
21123;DHT22;10719;48.130;11.630;2023-04-01T19:40:35;8.30;99.90
21123;DHT22;10719;48.130;11.630;2023-04-01T19:59:56;8.20;99.90
21123;DHT22;10719;48.130;11.630;2023-04-01T20:02:56;8.20;99.90
21123;DHT22;10719;48.130;11.630;2023-04-01T20:06:31;8.10;99.90
21123;DHT22;10719;48.130;11.630;2023-04-01T20:08:59;8.20;99.90
21123;DHT22;10719;48.130;11.630;2023-04-01T20:14:24;8.00;99.90
21123;DHT22;10719;48.130;11.630;2023-04-01T20:19:35;8.00;99.90
21123;DHT22;10719;48.130;11.630;2023-04-01T20:22:05;8.00;99.90
21123;DHT22;10719;48.130;11.630;2023-04-01T20:24:41;7.90;99.90
21123;DHT22;10719;48.130;11.630;2023-04-01T20:27:19;7.90;99.90
21123;DHT22;10719;48.130;11.630;2023-04-01T20:49:52;8.00;99.90
21123;DHT22;10719;48.130;11.630;2023-04-01T20:52:25;7.90;99.90
21123;DHT22;10719;48.130;11.630;2023-04-01T20:57:42;8.00;99.90
21123;DHT22;10719;48.130;11.630;2023-04-01T21:03:02;7.90;99.90
21123;DHT22;10719;48.130;11.630;2023-04-01T21:05:45;7.90;99.90
21123;DHT22;10719;48.130;11.630;2023-04-01T21:08:39;7.90;99.90
21123;DHT22;10719;48.130;11.630;2023-04-01T21:11:14;8.00;99.90
21123;DHT22;10719;48.130;11.630;2023-04-01T21:16:47;7.90;99.90
21123;DHT22;10719;48.130;11.630;2023-04-01T21:33:16;7.90;99.90
21123;DHT22;10719;48.130;11.630;2023-04-01T21:36:10;8.00;99.90
21123;DHT22;10719;48.130;11.630;2023-04-01T21:58:38;8.00;99.90
21123;DHT22;10719;48.130;11.630;2023-04-01T22:01:34;8.00;99.90
21123;DHT22;10719;48.130;11.630;2023-04-01T22:04:05;8.10;99.90
21123;DHT22;10719;48.130;11.630;2023-04-01T22:12:06;8.10;99.90
21123;DHT22;10719;48.130;11.630;2023-04-01T22:14:56;8.10;99.90
21123;DHT22;10719;48.130;11.630;2023-04-01T22:23:08;8.10;99.90
21123;DHT22;10719;48.130;11.630;2023-04-01T22:28:28;8.10;99.90
21123;DHT22;10719;48.130;11.630;2023-04-01T22:30:59;8.00;99.90
21123;DHT22;10719;48.130;11.630;2023-04-01T22:44:01;8.00;99.90
21123;DHT22;10719;48.130;11.630;2023-04-01T22:46:39;8.00;99.90
21123;DHT22;10719;48.130;11.630;2023-04-01T22:49:41;8.10;99.90
21123;DHT22;10719;48.130;11.630;2023-04-01T22:54:46;8.10;99.90
21123;DHT22;10719;48.130;11.630;2023-04-01T23:00:23;8.00;99.90
21123;DHT22;10719;48.130;11.630;2023-04-01T23:05:51;8.10;99.90
21123;DHT22;10719;48.130;11.630;2023-04-01T23:08:47;8.10;99.90
21123;DHT22;10719;48.130;11.630;2023-04-01T23:11:20;8.10;99.90
21123;DHT22;10719;48.130;11.630;2023-04-01T23:13:54;8.00;99.90
21123;DHT22;10719;48.130;11.630;2023-04-01T23:16:30;8.00;99.90
21123;DHT22;10719;48.130;11.630;2023-04-01T23:19:00;8.00;99.90
21123;DHT22;10719;48.130;11.630;2023-04-01T23:27:01;8.00;99.90
21123;DHT22;10719;48.130;11.630;2023-04-01T23:29:28;8.00;99.90
21123;DHT22;10719;48.130;11.630;2023-04-01T23:32:02;8.00;99.90
21123;DHT22;10719;48.130;11.630;2023-04-01T23:34:35;8.00;99.90
21123;DHT22;10719;48.130;11.630;2023-04-01T23:37:09;7.90;99.90
21123;DHT22;10719;48.130;11.630;2023-04-01T23:39:38;7.90;99.90
21123;DHT22;10719;48.130;11.630;2023-04-01T23:42:07;7.90;99.90
21123;DHT22;10719;48.130;11.630;2023-04-01T23:44:38;7.90;99.90
21123;DHT22;10719;48.130;11.630;2023-04-01T23:47:05;7.90;99.90
21123;DHT22;10719;48.130;11.630;2023-04-01T23:49:45;7.90;99.90
21123;DHT22;10719;48.130;11.630;2023-04-01T23:52:20;7.90;99.90
21123;DHT22;10719;48.130;11.630;2023-04-01T23:54:58;7.90;99.90
21123;DHT22;10719;48.130;11.630;2023-04-01T23:57:33;7.90;99.90
